SUCCESS DAM (SCC)

Elevation: 692' · TULE R basin · Operator: US Army Corps of Engineers

Provisional data, subject to change.
Query executed Saturday at 23:18:12   clock

Select a sensor type for a plot of data.
Note: Reservoir Flows are daily averages.

Earlier

Date RES ELE    STORAGE    RES CHG    TOC STO    ABV TOC    OUTFLOW    INFLOW    FNF    PPT INC    PPTINC4    TEMP MN    TEMP MX    WINDLEN    EVP PAN   
 FEET   AF   AF   AF   AF   CFS   CFS   CFS   INCHES   INCHES   DEG F   DEG F   MILES   INCHES  
05/26/2016 637.74 52262 130 82300 -30038 30 108 108 0.00 0.00 16 30 69 0.28
05/27/2016 637.80 52361 99 82300 -29939 28 92 92 0.00 0.00 15 33 59 0.29
05/28/2016 637.88 52492 131 82300 -29808 13 92 92 0.00 0.00 15 34 61 0.27
05/29/2016 637.97 52640 148 82300 -29660 3 92 92 0.00 0.00 17 35 62 0.31
05/30/2016 638.05 52772 132 82300 -29528 5 87 87 0.00 0.00 17 36 63 0.31
05/31/2016 638.13 52904 132 82300 -29396 9 92 92 0.01 0.00 19 38 59 0.32
06/01/2016 638.20 53020 116 82300 -29280 13 88 88 0.00 0.00 23 40 67 0.34
06/02/2016 638.26 53119 99 82300 -29181 17 82 82 0.00 0.00 18 39 60 0.31
06/03/2016 638.32 53219 100 82300 -29081 18 85 85 0.00 0.00 19 40 63 0.33
06/04/2016 638.38 53319 100 82300 -28981 9 77 77 0.01 0.00 22 42 64 0.34
06/05/2016 638.43 53402 83 82300 -28898 9 68 68 0.00 0.00 19 39 59 0.33
06/06/2016 638.47 53469 67 82300 -28831 25 76 76 0.00 0.00 18 38 66 0.33
06/07/2016 638.50 53519 50 82300 -28781 30 72 72 0.00 0.00 18 39 66 0.33
06/08/2016 638.52 53553 34 82300 -28747 33 67 67 0.00 0.00 19 36 69 0.32
06/09/2016 638.53 53570 17 82300 -28730 34 56 56 0.00 0.00 17 34 55 0.27
06/10/2016 638.54 53586 16 82300 -28714 33 55 55 0.00 0.00 17 32 67 0.28
06/11/2016 638.54 53586 0 82300 -28714 30 45 45 0.02 0.00 16 32 75 0.30
06/12/2016 638.56 53620 34 82300 -28680 25 58 58 0.09 0.02 15 32 70 0.30
06/13/2016 638.58 53653 33 82300 -28647 12 44 44 0.00 0.06 16 34 65 0.31
06/14/2016 638.60 53687 34 82300 -28613 10 43 43 0.00 0.00 14 31 68 0.30
06/15/2016 638.60 53687 0 82300 -28613 14 28 28 0.00 0.00 12 27 76 0.28
06/16/2016 638.61 53704 17 82300 -28596 14 37 37 0.00 0.00 10 28 73 0.28
06/17/2016 638.61 53704 0 82300 -28596 14 30 30 0.03 0.00 16 33 63 0.31
06/18/2016 638.63 53737 33 82300 -28563 7 38 38 0.00 0.00 15 33 58 0.29
06/19/2016 638.64 53754 17 82300 -28546 8 33 33 0.02 0.00 15 36 60 0.31
06/20/2016 638.62 53720 -34 82300 -28580 33 33 33 0.03 0.00 21 38 66 0.33
06/21/2016 638.58 53653 -67 82300 -28647 39 22 22 0.00 0.00 20 39 65 0.34
06/22/2016 638.54 53586 -67 82300 -28714 38 21 21 0.00 0.00 19 40 63 0.34
06/23/2016 638.49 53503 -83 82300 -28797 37 12 12 0.00 0.00 16 37 63 0.33
06/24/2016 638.45 53436 -67 82300 -28864 33 16 -- 0.00 0.00 15 36 67 0.32
06/25/2016 -- -- -- -- -- -- -- -- -- 0.00 -- -- -- --

Later | Latest

Warning! This data is preliminary and subject to revision.

Show SCC Map | Plot SCC Data | 1 Month SCC Data | Real-Time SCC Data | SCC Info